Time;durP1;ratioP1;P1;durP2;ratioP2;P2;SDS_P1;SDS_P2;PMS_P1;PMS_P2;Temp;Humidity;BMP_temperature;BMP_pressure;BME280_temperature;BME280_humidity;BME280_pressure;Samples;Min_cycle;Max_cycle;Signal;HPM_P1;HPM_P2
2022/08/02 00:00:54;;;;;;;46.78;6.90;;;;;;;;;;6210381;23;20079;-82
2022/08/02 00:03:22;;;;;;;45.28;7.70;;;;;;;;;;6208981;23;20354;-81
2022/08/02 00:05:51;;;;;;;46.47;7.30;;;;;;;;;;6207012;23;20378;-81
2022/08/02 00:08:20;;;;;;;44.38;6.97;;;;;;;;;;6209561;23;20461;-82
2022/08/02 00:10:47;;;;;;;33.67;6.72;;;;;;;;;;6208015;23;20016;-82
2022/08/02 00:13:14;;;;;;;46.60;7.22;;;;;;;;;;6209270;23;20032;-82
2022/08/02 00:15:42;;;;;;;40.80;7.68;;;;;;;;;;6209621;23;20450;-83
2022/08/02 00:18:09;;;;;;;43.33;6.97;;;;;;;;;;6209878;23;20032;-82
2022/08/02 00:20:36;;;;;;;;;;;;;;;;;;6210563;23;20024;-81
2022/08/02 00:23:04;;;;;;;40.25;6.95;;;;;;;;;;6210222;23;20312;-82
2022/08/02 00:25:31;;;;;;;47.25;7.40;;;;;;;;;;6209522;23;20462;-82
2022/08/02 00:27:59;;;;;;;56.28;8.60;;;;;;;;;;6210032;23;20536;-83
2022/08/02 00:30:26;;;;;;;44.50;7.82;;;;;;;;;;6210002;23;20381;-82
2022/08/02 00:32:53;;;;;;;54.80;7.60;;;;;;;;;;6209760;23;20056;-82
2022/08/02 00:35:20;;;;;;;44.55;7.55;;;;;;;;;;6208640;23;20343;-83
2022/08/02 00:37:48;;;;;;;54.75;7.65;;;;;;;;;;6210094;23;20075;-81
2022/08/02 00:40:15;;;;;;;49.42;8.23;;;;;;;;;;6209950;23;20086;-81
2022/08/02 00:42:43;;;;;;;54.55;8.88;;;;;;;;;;6209723;23;20110;-83
2022/08/02 00:45:10;;;;;;;48.53;7.97;;;;;;;;;;6210163;23;20024;-82
2022/08/02 00:47:37;;;;;;;45.38;8.10;;;;;;;;;;6207928;23;20466;-84
2022/08/02 00:50:06;;;;;;;51.75;7.85;;;;;;;;;;6209523;23;20028;-83
2022/08/02 00:52:33;;;;;;;50.88;7.90;;;;;;;;;;6209789;23;20029;-82
2022/08/02 00:55:00;;;;;;;55.63;8.30;;;;;;;;;;6209737;23;20079;-81
2022/08/02 00:57:28;;;;;;;;;;;;;;;;;;6210753;23;20024;-83
2022/08/02 00:59:56;;;;;;;54.92;8.43;;;;;;;;;;6208125;23;20286;-83
2022/08/02 01:02:23;;;;;;;59.95;8.45;;;;;;;;;;6208927;23;20028;-84
2022/08/02 01:04:50;;;;;;;;;;;;;;;;;;6209091;23;20020;-83
2022/08/02 01:07:17;;;;;;;52.92;8.27;;;;;;;;;;6208148;23;19930;-84
2022/08/02 01:09:45;;;;;;;49.60;7.53;;;;;;;;;;6209306;23;20071;-83
2022/08/02 01:12:12;;;;;;;50.00;7.88;;;;;;;;;;6210564;23;20025;-82
2022/08/02 01:14:43;;;;;;;54.58;8.85;;;;;;;;;;6208991;23;20020;-82
2022/08/02 01:17:15;;;;;;;54.95;8.27;;;;;;;;;;6209972;23;20028;-84
2022/08/02 01:20:01;;;;;;;58.50;8.63;;;;;;;;;;6208522;23;20024;-83
2022/08/02 01:22:48;;;;;;;56.17;7.75;;;;;;;;;;6210089;23;20500;-84
2022/08/02 01:25:56;;;;;;;50.47;8.00;;;;;;;;;;6151990;23;20342;-83
2022/08/02 01:28:35;;;;;;;61.00;8.98;;;;;;;;;;6210440;23;20021;-83
2022/08/02 01:31:12;;;;;;;51.03;8.10;;;;;;;;;;6210100;23;20458;-83
2022/08/02 01:33:45;;;;;;;47.95;7.97;;;;;;;;;;6210586;23;20548;-82
2022/08/02 01:36:13;;;;;;;52.28;9.15;;;;;;;;;;6210332;23;20028;-83
2022/08/02 01:38:46;;;;;;;40.28;8.25;;;;;;;;;;6210109;23;20086;-83
2022/08/02 01:41:17;;;;;;;61.45;8.55;;;;;;;;;;6210333;23;20739;-83
2022/08/02 01:43:45;;;;;;;54.17;8.55;;;;;;;;;;6210535;23;20035;-82
2022/08/02 01:46:14;;;;;;;58.72;9.80;;;;;;;;;;6209844;23;20450;-83
2022/08/02 01:48:43;;;;;;;66.03;9.48;;;;;;;;;;6209208;23;20343;-83
2022/08/02 01:51:12;;;;;;;49.50;8.82;;;;;;;;;;6210528;23;20044;-84
2022/08/02 01:53:42;;;;;;;62.47;9.05;;;;;;;;;;6209684;23;20035;-83
2022/08/02 01:56:11;;;;;;;56.63;8.70;;;;;;;;;;6210617;23;20066;-83
2022/08/02 01:58:38;;;;;;;60.63;9.00;;;;;;;;;;6210740;23;20544;-83
2022/08/02 02:01:07;;;;;;;67.30;9.18;;;;;;;;;;6210583;23;20025;-83
2022/08/02 02:03:40;;;;;;;54.58;8.77;;;;;;;;;;6210955;23;20071;-83
2022/08/02 02:06:09;;;;;;;39.53;7.60;;;;;;;;;;6213135;23;20021;-82
2022/08/02 02:08:38;;;;;;;58.55;8.95;;;;;;;;;;6211679;23;20064;-83
2022/08/02 02:11:06;;;;;;;67.32;9.32;;;;;;;;;;6212341;23;20538;-83
2022/08/02 02:13:54;;;;;;;61.60;8.52;;;;;;;;;;6212400;23;20139;-83
2022/08/02 02:16:23;;;;;;;45.97;9.18;;;;;;;;;;6211185;23;20302;-83
2022/08/02 02:18:52;;;;;;;52.47;8.38;;;;;;;;;;6210201;23;20351;-82
2022/08/02 02:21:19;;;;;;;60.30;9.32;;;;;;;;;;6210284;23;20048;-82
2022/08/02 02:23:47;;;;;;;59.63;8.68;;;;;;;;;;6211576;23;20059;-82
2022/08/02 02:26:17;;;;;;;64.18;9.15;;;;;;;;;;6210766;23;20024;-83
2022/08/02 02:28:59;;;;;;;63.00;9.25;;;;;;;;;;6212387;23;20024;-82
2022/08/02 02:31:28;;;;;;;52.95;8.73;;;;;;;;;;6210201;23;20020;-83
2022/08/02 02:33:58;;;;;;;61.28;9.88;;;;;;;;;;6210571;23;20024;-82
2022/08/02 02:36:25;;;;;;;52.22;8.75;;;;;;;;;;6211711;23;20102;-83
2022/08/02 02:38:55;;;;;;;67.82;8.85;;;;;;;;;;6211546;23;20074;-82
2022/08/02 02:41:22;;;;;;;57.67;9.40;;;;;;;;;;6211590;23;20325;-82
2022/08/02 02:43:50;;;;;;;57.78;9.32;;;;;;;;;;6211916;23;20024;-82
2022/08/02 02:46:20;;;;;;;;;;;;;;;;;;6212119;23;20021;-82
2022/08/02 02:48:49;;;;;;;54.78;9.27;;;;;;;;;;6211396;23;20336;-82
2022/08/02 02:51:17;;;;;;;56.67;9.20;;;;;;;;;;6210530;23;20629;-82
2022/08/02 02:53:45;;;;;;;54.30;9.38;;;;;;;;;;6209657;23;20035;-82
2022/08/02 02:56:33;;;;;;;43.03;8.70;;;;;;;;;;6211719;23;20323;-84
2022/08/02 02:59:00;;;;;;;;;;;;;;;;;;6212026;23;20060;-83
2022/08/02 03:01:28;;;;;;;62.10;8.70;;;;;;;;;;6212728;23;19916;-84
2022/08/02 03:04:15;;;;;;;51.88;8.93;;;;;;;;;;6212111;23;20063;-82
2022/08/02 03:06:43;;;;;;;62.90;9.38;;;;;;;;;;6211682;23;20021;-83
2022/08/02 03:09:10;;;;;;;48.75;9.70;;;;;;;;;;6212092;23;20028;-83
2022/08/02 03:11:38;;;;;;;46.72;8.88;;;;;;;;;;6210748;23;20425;-84
2022/08/02 03:14:08;;;;;;;45.05;8.95;;;;;;;;;;6211704;23;20032;-84
2022/08/02 03:16:41;;;;;;;58.20;9.07;;;;;;;;;;6210618;23;20028;-83
2022/08/02 03:19:09;;;;;;;66.75;9.30;;;;;;;;;;6210220;23;20024;-83
2022/08/02 03:21:36;;;;;;;50.00;8.32;;;;;;;;;;6210443;23;20547;-83
2022/08/02 03:24:03;;;;;;;48.70;9.23;;;;;;;;;;6210964;23;20024;-83
2022/08/02 03:26:31;;;;;;;;;;;;;;;;;;6209468;23;20021;-84
2022/08/02 03:28:58;;;;;;;61.42;9.02;;;;;;;;;;6209522;23;19965;-83
2022/08/02 03:31:27;;;;;;;46.22;8.02;;;;;;;;;;6210633;23;20108;-83
2022/08/02 03:33:59;;;;;;;57.90;9.45;;;;;;;;;;6210963;23;20020;-83
2022/08/02 03:36:28;;;;;;;51.72;9.02;;;;;;;;;;6209256;23;20028;-83
2022/08/02 03:38:56;;;;;;;51.38;8.68;;;;;;;;;;6210565;23;20335;-83
2022/08/02 03:41:23;;;;;;;49.78;9.65;;;;;;;;;;6211494;23;20028;-83
2022/08/02 03:43:52;;;;;;;50.40;8.02;;;;;;;;;;6211750;23;20023;-83
2022/08/02 03:46:21;;;;;;;39.33;8.27;;;;;;;;;;6211649;23;20025;-83
2022/08/02 03:48:49;;;;;;;53.90;9.40;;;;;;;;;;6211298;23;20071;-83
2022/08/02 03:51:16;;;;;;;51.85;8.13;;;;;;;;;;6211589;23;20613;-82
2022/08/02 03:53:44;;;;;;;50.10;8.82;;;;;;;;;;6210151;23;20020;-83
2022/08/02 03:56:11;;;;;;;52.50;8.70;;;;;;;;;;6212070;23;20078;-83
2022/08/02 03:58:39;;;;;;;31.13;7.25;;;;;;;;;;6211385;23;20024;-82
2022/08/02 04:01:11;;;;;;;49.25;8.57;;;;;;;;;;6211052;23;20036;-83
2022/08/02 04:03:38;;;;;;;52.72;9.82;;;;;;;;;;6211530;23;20099;-82
2022/08/02 04:06:06;;;;;;;32.28;7.45;;;;;;;;;;6211304;23;20025;-83
2022/08/02 04:08:33;;;;;;;;;;;;;;;;;;6210253;23;20413;-84
2022/08/02 04:13:51;;;;;;;29.95;6.55;;;;;;;;;;6211223;23;20020;-83
2022/08/02 04:16:27;;;;;;;30.83;6.13;;;;;;;;;;6209349;23;20361;-83
2022/08/02 04:19:00;;;;;;;27.90;6.22;;;;;;;;;;6209640;23;20029;-84
2022/08/02 04:21:29;;;;;;;32.70;6.93;;;;;;;;;;6210554;23;20031;-84
2022/08/02 04:24:18;;;;;;;35.42;5.75;;;;;;;;;;6208884;23;20365;-83
2022/08/02 04:26:46;;;;;;;26.90;5.28;;;;;;;;;;6209854;23;20091;-83
2022/08/02 04:29:15;;;;;;;28.30;4.93;;;;;;;;;;6210722;23;20025;-83
2022/08/02 04:31:43;;;;;;;27.00;5.40;;;;;;;;;;6209151;23;20110;-83
2022/08/02 04:34:10;;;;;;;23.73;5.18;;;;;;;;;;6209816;23;20028;-84
2022/08/02 04:36:41;;;;;;;26.45;5.18;;;;;;;;;;6211536;23;20091;-83
2022/08/02 04:39:09;;;;;;;20.95;4.75;;;;;;;;;;6210738;23;20552;-82
2022/08/02 04:41:40;;;;;;;21.17;5.20;;;;;;;;;;6210762;23;20024;-83
2022/08/02 04:44:10;;;;;;;28.80;5.22;;;;;;;;;;6210729;23;20028;-82
2022/08/02 04:46:38;;;;;;;36.47;5.32;;;;;;;;;;6209915;23;20465;-82
2022/08/02 04:49:05;;;;;;;25.65;5.15;;;;;;;;;;6211059;23;20082;-82
2022/08/02 04:51:36;;;;;;;20.23;4.25;;;;;;;;;;6210582;23;20131;-82
2022/08/02 04:54:05;;;;;;;22.42;5.13;;;;;;;;;;6208991;23;20369;-82
2022/08/02 04:56:35;;;;;;;24.08;4.65;;;;;;;;;;6210308;23;20484;-83
2022/08/02 04:59:03;;;;;;;;;;;;;;;;;;6210920;23;20082;-82
2022/08/02 05:01:31;;;;;;;17.90;4.30;;;;;;;;;;6210136;23;20158;-82
2022/08/02 05:03:58;;;;;;;32.65;5.50;;;;;;;;;;6208308;23;20024;-85
2022/08/02 05:06:26;;;;;;;30.67;5.22;;;;;;;;;;6210374;23;20055;-83
2022/08/02 05:08:53;;;;;;;26.05;4.80;;;;;;;;;;6209975;23;20063;-82
2022/08/02 05:11:21;;;;;;;16.15;4.53;;;;;;;;;;6209447;23;20025;-82
2022/08/02 05:14:02;;;;;;;25.35;5.40;;;;;;;;;;6210405;23;20017;-83
2022/08/02 05:16:30;;;;;;;23.33;4.53;;;;;;;;;;6209478;23;20469;-83
2022/08/02 05:19:01;;;;;;;22.35;4.63;;;;;;;;;;6209366;23;20020;-82
2022/08/02 05:21:30;;;;;;;19.67;4.80;;;;;;;;;;6211010;23;20528;-82
2022/08/02 05:23:57;;;;;;;22.77;3.95;;;;;;;;;;6210844;23;20028;-84
2022/08/02 05:26:24;;;;;;;20.60;3.90;;;;;;;;;;6210143;23;20086;-84
2022/08/02 05:28:51;;;;;;;17.95;3.95;;;;;;;;;;6210673;23;20083;-83
2022/08/02 05:31:19;;;;;;;19.88;4.72;;;;;;;;;;6210828;23;20020;-82
2022/08/02 05:33:47;;;;;;;16.73;4.03;;;;;;;;;;6210187;23;20029;-82
2022/08/02 05:36:14;;;;;;;20.52;4.55;;;;;;;;;;6210396;23;20024;-83
2022/08/02 05:38:43;;;;;;;28.45;4.43;;;;;;;;;;6210851;23;20051;-82
2022/08/02 05:41:17;;;;;;;29.05;4.30;;;;;;;;;;6210465;23;20021;-83
2022/08/02 05:43:46;;;;;;;18.30;3.90;;;;;;;;;;6210961;23;20417;-82
2022/08/02 05:46:13;;;;;;;16.02;3.50;;;;;;;;;;6210207;23;20071;-81
2022/08/02 05:48:40;;;;;;;23.95;4.20;;;;;;;;;;6210850;23;20055;-82
2022/08/02 05:51:12;;;;;;;22.52;3.83;;;;;;;;;;6210638;23;20025;-82
2022/08/02 05:53:49;;;;;;;29.67;3.50;;;;;;;;;;6209991;23;20539;-83
2022/08/02 05:56:19;;;;;;;15.63;3.75;;;;;;;;;;6211004;23;20036;-83
2022/08/02 05:58:53;;;;;;;18.75;3.72;;;;;;;;;;6211107;23;20107;-82
2022/08/02 06:01:41;;;;;;;24.35;3.63;;;;;;;;;;6208467;23;20029;-82
2022/08/02 06:04:10;;;;;;;18.73;3.72;;;;;;;;;;6210012;23;20021;-82
2022/08/02 06:06:37;;;;;;;16.27;3.75;;;;;;;;;;6210808;23;20024;-82
2022/08/02 06:09:09;;;;;;;20.60;3.60;;;;;;;;;;6210115;23;20029;-80
2022/08/02 06:11:38;;;;;;;20.40;3.58;;;;;;;;;;6210378;23;20398;-82
2022/08/02 06:14:06;;;;;;;16.60;3.47;;;;;;;;;;6211166;23;20025;-82
2022/08/02 06:16:34;;;;;;;21.50;3.30;;;;;;;;;;6209188;23;20047;-81
2022/08/02 06:19:09;;;;;;;12.52;2.53;;;;;;;;;;6210708;23;20028;-83
2022/08/02 06:21:38;;;;;;;13.93;2.88;;;;;;;;;;6208604;23;20029;-81
2022/08/02 07:58:23;;;;;;;10.82;2.50;;;;;;;;;;6112177;23;1848886;-89
2022/08/02 08:00:51;;;;;;;10.25;2.45;;;;;;;;;;6184608;23;20422;-90
2022/08/02 08:03:18;;;;;;;9.88;2.08;;;;;;;;;;6161741;23;20021;-90
2022/08/02 08:05:45;;;;;;;11.60;2.50;;;;;;;;;;6159983;23;20021;-89
2022/08/02 08:08:13;;;;;;;13.55;2.22;;;;;;;;;;6158770;23;20029;-90
2022/08/02 08:10:43;;;;;;;9.93;2.15;;;;;;;;;;6160747;23;20029;-88
2022/08/02 08:13:11;;;;;;;8.68;2.20;;;;;;;;;;6158618;23;20025;-89
2022/08/02 08:15:38;;;;;;;15.13;2.13;;;;;;;;;;6159505;23;20025;-89
2022/08/02 08:18:06;;;;;;;10.90;2.25;;;;;;;;;;6159838;23;20028;-90
2022/08/02 08:20:34;;;;;;;10.75;2.30;;;;;;;;;;6161062;23;20037;-91
2022/08/02 08:23:02;;;;;;;14.90;2.53;;;;;;;;;;6159351;23;20029;-90
2022/08/02 08:25:29;;;;;;;8.23;2.05;;;;;;;;;;6160574;23;20025;-90
2022/08/02 08:28:06;;;;;;;9.45;2.17;;;;;;;;;;6160394;23;20100;-90
2022/08/02 08:30:33;;;;;;;11.07;2.53;;;;;;;;;;6160899;23;20029;-89
2022/08/02 08:33:01;;;;;;;18.25;2.85;;;;;;;;;;6161355;23;20084;-90
2022/08/02 08:35:29;;;;;;;10.10;2.08;;;;;;;;;;6154689;23;20371;-88
2022/08/02 08:37:56;;;;;;;;;;;;;;;;;;6155333;23;20088;-90
2022/08/02 08:40:24;;;;;;;10.57;2.00;;;;;;;;;;6154148;23;19921;-90
2022/08/02 08:42:51;;;;;;;7.93;2.13;;;;;;;;;;6153209;23;20022;-92
2022/08/02 08:45:19;;;;;;;12.23;2.25;;;;;;;;;;6152759;23;20044;-89
2022/08/02 08:47:49;;;;;;;9.48;2.65;;;;;;;;;;6153248;23;20055;-90
2022/08/02 08:50:19;;;;;;;8.63;2.60;;;;;;;;;;6152975;23;20021;-91
2022/08/02 08:53:02;;;;;;;11.27;2.20;;;;;;;;;;6153854;23;20021;-90
2022/08/02 08:55:29;;;;;;;;;;;;;;;;;;6157928;23;20021;-91
2022/08/02 08:57:58;;;;;;;8.88;1.80;;;;;;;;;;6157073;23;19916;-91
2022/08/02 09:00:26;;;;;;;12.90;2.28;;;;;;;;;;6154164;23;20029;-92
2022/08/02 09:02:53;;;;;;;7.00;2.03;;;;;;;;;;6155084;23;20080;-92
2022/08/02 09:05:21;;;;;;;7.18;2.20;;;;;;;;;;6154084;23;20485;-90
2022/08/02 09:07:50;;;;;;;7.38;1.90;;;;;;;;;;6153705;23;20017;-89
2022/08/02 09:10:36;;;;;;;10.27;2.10;;;;;;;;;;6154570;23;20029;-91
2022/08/02 09:13:06;;;;;;;4.70;1.73;;;;;;;;;;6153702;23;20018;-90
2022/08/02 09:15:55;;;;;;;9.23;2.00;;;;;;;;;;6154592;23;20100;-91
2022/08/02 09:18:32;;;;;;;6.97;1.60;;;;;;;;;;6153835;23;20467;-91
2022/08/02 09:21:01;;;;;;;10.70;2.00;;;;;;;;;;6155146;23;20035;-90
2022/08/02 09:23:39;;;;;;;7.72;1.90;;;;;;;;;;6153032;23;20095;-91
2022/08/02 09:26:08;;;;;;;8.45;1.83;;;;;;;;;;6153898;23;20479;-91
2022/08/02 09:28:37;;;;;;;5.65;2.08;;;;;;;;;;6153185;23;20462;-92
2022/08/02 09:31:12;;;;;;;4.50;1.40;;;;;;;;;;6154675;23;20033;-92
2022/08/02 09:33:41;;;;;;;4.03;1.55;;;;;;;;;;6155140;23;20022;-89
2022/08/02 09:36:11;;;;;;;7.70;1.98;;;;;;;;;;6153192;23;20054;-91
2022/08/02 09:38:39;;;;;;;11.63;1.90;;;;;;;;;;6151786;23;20021;-92
2022/08/02 09:41:19;;;;;;;7.45;1.75;;;;;;;;;;6153465;23;20033;-90
2022/08/02 09:43:46;;;;;;;4.40;1.40;;;;;;;;;;6154353;23;20073;-89
2022/08/02 09:46:32;;;;;;;5.10;1.42;;;;;;;;;;6151881;23;20397;-91
2022/08/02 09:49:00;;;;;;;7.13;1.75;;;;;;;;;;6153936;23;20017;-90
2022/08/02 09:51:29;;;;;;;6.22;2.80;;;;;;;;;;6153357;23;20108;-90
2022/08/02 09:53:57;;;;;;;4.03;1.50;;;;;;;;;;6150637;23;20025;-90
2022/08/02 09:56:34;;;;;;;;;;;;;;;;;;6152831;23;20097;-91
2022/08/02 09:59:06;;;;;;;5.13;1.65;;;;;;;;;;6153186;23;19917;-90
2022/08/02 10:01:33;;;;;;;6.72;1.80;;;;;;;;;;6151737;23;20022;-90
2022/08/02 10:04:06;;;;;;;5.18;1.20;;;;;;;;;;6153942;23;20359;-90
2022/08/02 10:06:34;;;;;;;5.93;1.25;;;;;;;;;;6153119;23;20519;-91
2022/08/02 10:09:01;;;;;;;6.97;1.95;;;;;;;;;;6153430;23;20084;-90
2022/08/02 10:11:29;;;;;;;6.80;1.80;;;;;;;;;;6154087;23;20018;-91
2022/08/02 10:13:58;;;;;;;3.47;1.55;;;;;;;;;;6152027;23;20088;-91
2022/08/02 10:16:25;;;;;;;5.88;1.33;;;;;;;;;;6150906;23;20026;-91
2022/08/02 10:18:53;;;;;;;6.15;1.58;;;;;;;;;;6152535;23;20108;-89
2022/08/02 10:21:31;;;;;;;7.00;2.00;;;;;;;;;;6151504;23;20021;-90
2022/08/02 10:24:02;;;;;;;7.33;1.67;;;;;;;;;;6153613;23;20072;-90
2022/08/02 10:26:30;;;;;;;5.78;1.70;;;;;;;;;;6154320;23;20025;-89
2022/08/02 10:28:57;;;;;;;5.65;1.52;;;;;;;;;;6153553;23;20085;-90
2022/08/02 10:31:27;;;;;;;5.40;1.73;;;;;;;;;;6152402;23;20029;-90
2022/08/02 10:33:58;;;;;;;5.32;1.60;;;;;;;;;;6152904;23;20466;-90
2022/08/02 10:36:26;;;;;;;6.07;1.70;;;;;;;;;;6153453;23;20021;-91
2022/08/02 10:38:54;;;;;;;7.03;1.58;;;;;;;;;;6151765;23;20021;-91
2022/08/02 10:41:42;;;;;;;3.97;1.55;;;;;;;;;;6151259;23;20025;-91
2022/08/02 10:44:19;;;;;;;3.08;1.10;;;;;;;;;;6152897;23;20080;-90
2022/08/02 10:46:51;;;;;;;3.28;1.33;;;;;;;;;;6153252;23;20022;-89
2022/08/02 10:49:19;;;;;;;5.07;1.48;;;;;;;;;;6154304;23;20087;-90
2022/08/02 10:52:07;;;;;;;4.45;1.48;;;;;;;;;;6152254;23;20053;-89
2022/08/02 10:54:39;;;;;;;5.75;1.38;;;;;;;;;;6151596;23;20022;-89
2022/08/02 10:57:20;;;;;;;2.78;1.20;;;;;;;;;;6150748;23;20029;-89
2022/08/02 10:59:49;;;;;;;4.78;1.35;;;;;;;;;;6152076;23;20026;-89
2022/08/02 11:02:37;;;;;;;6.03;1.52;;;;;;;;;;6149790;23;20092;-90
2022/08/02 11:05:06;;;;;;;4.05;1.58;;;;;;;;;;6151044;23;20025;-88
2022/08/02 11:07:33;;;;;;;9.25;1.25;;;;;;;;;;6149487;23;20022;-90
2022/08/02 11:10:20;;;;;;;5.40;1.80;;;;;;;;;;6149478;23;20017;-90
2022/08/02 11:13:03;;;;;;;4.25;1.50;;;;;;;;;;6151840;23;20021;-91
2022/08/02 11:15:46;;;;;;;3.60;1.40;;;;;;;;;;6151005;23;20335;-89
2022/08/02 11:18:14;;;;;;;3.80;1.38;;;;;;;;;;6152961;23;20360;-90
2022/08/02 11:20:41;;;;;;;6.55;1.58;;;;;;;;;;6151288;23;20029;-90
2022/08/02 11:23:27;;;;;;;4.13;1.52;;;;;;;;;;6150678;23;20026;-90
2022/08/02 11:26:30;;;;;;;4.15;1.40;;;;;;;;;;6151302;23;20044;-90
2022/08/02 11:28:59;;;;;;;3.45;1.30;;;;;;;;;;6150246;23;20076;-91
2022/08/02 11:31:26;;;;;;;5.75;1.98;;;;;;;;;;6150606;23;20041;-91
2022/08/02 11:33:53;;;;;;;;;;;;;;;;;;6148897;23;20021;-91
2022/08/02 11:36:21;;;;;;;8.07;1.60;;;;;;;;;;6151051;23;19916;-91
2022/08/02 11:38:49;;;;;;;3.55;1.90;;;;;;;;;;6150798;23;20021;-89
2022/08/02 11:41:20;;;;;;;3.42;1.60;;;;;;;;;;6152603;23;20662;-90
2022/08/02 11:44:07;;;;;;;3.95;1.60;;;;;;;;;;6150885;23;20057;-90
2022/08/02 11:46:36;;;;;;;5.13;1.80;;;;;;;;;;6150375;23;20088;-90
2022/08/02 11:49:16;;;;;;;4.32;1.63;;;;;;;;;;6151831;23;20018;-90
2022/08/02 11:51:54;;;;;;;7.65;1.85;;;;;;;;;;6150561;23;20080;-90
2022/08/02 11:54:22;;;;;;;8.03;1.90;;;;;;;;;;6150942;23;20081;-90
2022/08/02 11:56:49;;;;;;;7.10;1.95;;;;;;;;;;6150546;23;20455;-90
2022/08/02 11:59:17;;;;;;;4.97;1.70;;;;;;;;;;6149947;23;20037;-90
2022/08/02 12:01:44;;;;;;;6.53;1.60;;;;;;;;;;6152709;23;20454;-92
2022/08/02 12:04:15;;;;;;;7.88;2.13;;;;;;;;;;6151376;23;20022;-91
2022/08/02 12:06:43;;;;;;;6.10;2.13;;;;;;;;;;6152698;23;20063;-90
2022/08/02 12:09:13;;;;;;;5.70;1.90;;;;;;;;;;6151579;23;20105;-90
2022/08/02 12:11:48;;;;;;;9.43;2.15;;;;;;;;;;6153941;23;20053;-92
2022/08/02 12:14:15;;;;;;;11.90;2.10;;;;;;;;;;6154949;23;20017;-92
2022/08/02 12:19:29;;;;;;;7.82;2.20;;;;;;;;;;6156288;23;20049;-91
2022/08/02 12:22:06;;;;;;;9.40;2.15;;;;;;;;;;6156169;23;20025;-91
2022/08/02 12:24:34;;;;;;;8.13;2.45;;;;;;;;;;6155507;23;20026;-92
2022/08/02 12:27:02;;;;;;;6.70;1.88;;;;;;;;;;6154737;23;20022;-92
2022/08/02 12:29:30;;;;;;;12.18;2.22;;;;;;;;;;6154773;23;20023;-92
2022/08/02 12:32:23;;;;;;;9.18;2.50;;;;;;;;;;6153570;23;20109;-91
2022/08/02 12:35:23;;;;;;;6.88;2.25;;;;;;;;;;6153582;23;20026;-90
2022/08/02 12:37:53;;;;;;;7.53;2.53;;;;;;;;;;6122009;23;20024;-90
2022/08/02 12:40:20;;;;;;;;;;;;;;;;;;6156452;23;20470;-91
2022/08/02 12:42:56;;;;;;;7.63;2.65;;;;;;;;;;6155890;23;19947;-91
2022/08/02 12:45:24;;;;;;;7.20;2.60;;;;;;;;;;6156556;23;20084;-91
2022/08/02 12:47:53;;;;;;;8.55;2.45;;;;;;;;;;6155217;23;20021;-90
2022/08/02 12:50:29;;;;;;;12.02;2.78;;;;;;;;;;6153168;23;20052;-92
2022/08/02 12:53:10;;;;;;;7.07;2.50;;;;;;;;;;6154207;23;20029;-92
2022/08/02 12:55:46;;;;;;;10.18;2.45;;;;;;;;;;6152552;23;20068;-91
2022/08/02 12:58:29;;;;;;;8.80;2.80;;;;;;;;;;6153440;23;20096;-90
2022/08/02 13:00:58;;;;;;;6.63;2.30;;;;;;;;;;6153663;23;20079;-90
2022/08/02 13:03:26;;;;;;;5.45;2.25;;;;;;;;;;6154670;23;20024;-90
2022/08/02 13:06:14;;;;;;;5.28;2.03;;;;;;;;;;6163546;23;20032;-92
2022/08/02 13:09:11;;;;;;;6.60;2.33;;;;;;;;;;6160973;23;20025;-92
2022/08/02 13:11:38;;;;;;;11.13;2.70;;;;;;;;;;6154833;23;20022;-92
2022/08/02 13:14:10;;;;;;;11.57;2.45;;;;;;;;;;6155526;23;20049;-92
2022/08/02 13:16:37;;;;;;;;;;;;;;;;;;6156233;23;20021;-92
2022/08/02 13:19:04;;;;;;;11.20;2.55;;;;;;;;;;6154790;23;19948;-93
2022/08/02 13:21:33;;;;;;;6.25;2.38;;;;;;;;;;6155302;23;20018;-91
2022/08/02 13:24:21;;;;;;;7.97;2.92;;;;;;;;;;6154872;23;20102;-91
2022/08/02 13:27:07;;;;;;;4.90;2.50;;;;;;;;;;6154455;23;20025;-93
2022/08/02 13:29:38;;;;;;;6.97;2.75;;;;;;;;;;6156144;23;20083;-93
2022/08/02 13:32:06;;;;;;;10.30;2.63;;;;;;;;;;6154564;23;20025;-92
2022/08/02 13:34:33;;;;;;;9.32;2.78;;;;;;;;;;6155079;23;20020;-93
2022/08/02 13:37:01;;;;;;;7.25;2.28;;;;;;;;;;6154117;23;20278;-93
2022/08/02 13:39:29;;;;;;;5.18;2.30;;;;;;;;;;6153643;23;20525;-92
2022/08/02 13:41:56;;;;;;;7.32;2.45;;;;;;;;;;6155099;23;20080;-91
2022/08/02 13:44:24;;;;;;;7.88;2.38;;;;;;;;;;6154322;23;20018;-95
2022/08/02 13:46:51;;;;;;;9.00;2.42;;;;;;;;;;6154647;23;20022;-94
2022/08/02 13:49:18;;;;;;;7.03;2.45;;;;;;;;;;6154702;23;20014;-92
2022/08/02 13:51:48;;;;;;;10.88;2.50;;;;;;;;;;6155214;23;20024;-92
2022/08/02 13:54:16;;;;;;;9.77;2.40;;;;;;;;;;6153544;23;20029;-92
2022/08/02 13:56:44;;;;;;;10.07;2.67;;;;;;;;;;6154271;23;20017;-91
2022/08/02 13:59:11;;;;;;;9.98;2.63;;;;;;;;;;6153302;23;20025;-90
2022/08/02 14:01:59;;;;;;;5.93;2.55;;;;;;;;;;6152916;23;20409;-90
2022/08/02 14:04:27;;;;;;;9.63;2.33;;;;;;;;;;6152803;23;20053;-91
2022/08/02 14:06:55;;;;;;;9.35;2.65;;;;;;;;;;6154002;23;20021;-93
2022/08/02 14:09:25;;;;;;;6.13;2.30;;;;;;;;;;6155417;23;20029;-93
2022/08/02 14:11:52;;;;;;;;;;;;;;;;;;6154881;23;20088;-92
2022/08/02 14:14:21;;;;;;;8.82;2.40;;;;;;;;;;6152519;23;19916;-91
2022/08/02 14:16:48;;;;;;;7.85;2.60;;;;;;;;;;6151366;23;20463;-92
2022/08/02 14:19:15;;;;;;;4.68;2.10;;;;;;;;;;6152963;23;20018;-91
2022/08/02 14:21:44;;;;;;;9.68;2.40;;;;;;;;;;6152427;23;20031;-91
2022/08/02 14:24:13;;;;;;;8.13;2.30;;;;;;;;;;6155427;23;20021;-92
2022/08/02 14:26:40;;;;;;;4.65;2.08;;;;;;;;;;6153785;23;20029;-90
2022/08/02 14:29:08;;;;;;;6.95;2.35;;;;;;;;;;6155290;23;20025;-90
2022/08/02 14:31:35;;;;;;;11.15;2.70;;;;;;;;;;6154870;23;20026;-92
2022/08/02 14:34:10;;;;;;;5.97;2.40;;;;;;;;;;6153051;23;20732;-90
2022/08/02 14:36:37;;;;;;;;;;;;;;;;;;6153034;23;20029;-91
2022/08/02 14:39:05;;;;;;;7.78;1.92;;;;;;;;;;6152356;23;20261;-91
2022/08/02 14:41:35;;;;;;;;;;;;;;;;;;6154086;23;20072;-90
2022/08/02 14:44:22;;;;;;;7.88;2.38;;;;;;;;;;6152518;23;19952;-91
2022/08/02 14:46:49;;;;;;;3.88;2.03;;;;;;;;;;6152980;23;20348;-90
2022/08/02 14:49:19;;;;;;;7.03;2.13;;;;;;;;;;6153964;23;20100;-90
2022/08/02 14:51:53;;;;;;;5.40;1.90;;;;;;;;;;6153290;23;20033;-91
2022/08/02 14:54:21;;;;;;;6.63;1.73;;;;;;;;;;6151172;23;20028;-89
2022/08/02 14:57:01;;;;;;;6.22;1.83;;;;;;;;;;6152475;23;20025;-91
2022/08/02 14:59:29;;;;;;;5.60;1.90;;;;;;;;;;6150518;23;20068;-91
2022/08/02 15:01:56;;;;;;;8.20;2.05;;;;;;;;;;6152839;23;20026;-90
2022/08/02 15:04:24;;;;;;;6.20;2.30;;;;;;;;;;6152825;23;20017;-91
2022/08/02 15:06:53;;;;;;;4.75;1.70;;;;;;;;;;6151185;23;20021;-91
2022/08/02 15:09:20;;;;;;;5.65;2.00;;;;;;;;;;6151372;23;20025;-90
2022/08/02 15:11:48;;;;;;;5.05;1.70;;;;;;;;;;6152484;23;20033;-90
2022/08/02 15:14:16;;;;;;;6.32;1.63;;;;;;;;;;6152569;23;20048;-91
2022/08/02 15:16:52;;;;;;;4.32;1.38;;;;;;;;;;6152857;23;20025;-91
2022/08/02 15:19:24;;;;;;;9.18;2.72;;;;;;;;;;6151540;23;20096;-90
2022/08/02 15:22:11;;;;;;;7.80;2.33;;;;;;;;;;6151448;23;20538;-91
2022/08/02 15:24:43;;;;;;;2.65;1.70;;;;;;;;;;6152576;23;20057;-90
2022/08/02 15:27:12;;;;;;;7.10;1.67;;;;;;;;;;6152909;23;20029;-91
2022/08/02 15:29:41;;;;;;;6.15;1.92;;;;;;;;;;6152013;23;20022;-92
2022/08/02 15:32:08;;;;;;;10.88;1.92;;;;;;;;;;6152559;23;20080;-91
2022/08/02 15:34:36;;;;;;;5.55;1.65;;;;;;;;;;6151774;23;20028;-91
2022/08/02 15:37:04;;;;;;;6.18;1.50;;;;;;;;;;6152791;23;20084;-89
2022/08/02 15:39:31;;;;;;;;;;;;;;;;;;6152269;23;20021;-91
2022/08/02 15:41:58;;;;;;;6.35;1.85;;;;;;;;;;6151224;23;19972;-90
2022/08/02 15:44:26;;;;;;;6.32;1.77;;;;;;;;;;6151218;23;20021;-90
2022/08/02 15:46:54;;;;;;;;;;;;;;;;;;6154957;23;20648;-91
2022/08/02 15:49:22;;;;;;;4.15;1.60;;;;;;;;;;6155001;23;19983;-90
2022/08/02 15:51:53;;;;;;;10.68;2.28;;;;;;;;;;6155827;23;20040;-91
2022/08/02 15:54:20;;;;;;;5.90;2.10;;;;;;;;;;6154705;23;20025;-92
2022/08/02 15:56:48;;;;;;;6.25;2.97;;;;;;;;;;6154447;23;20037;-92
2022/08/02 15:59:16;;;;;;;8.98;2.47;;;;;;;;;;6155711;23;20068;-91
2022/08/02 16:01:43;;;;;;;4.28;1.55;;;;;;;;;;6154145;23;20447;-90
2022/08/02 16:04:14;;;;;;;10.70;1.90;;;;;;;;;;6155369;23;20030;-92
2022/08/02 16:06:42;;;;;;;8.05;2.10;;;;;;;;;;6154182;23;20022;-92
2022/08/02 16:09:09;;;;;;;;;;;;;;;;;;6153032;23;20029;-90
2022/08/02 16:11:36;;;;;;;6.85;1.88;;;;;;;;;;6157549;23;19959;-90
2022/08/02 16:14:04;;;;;;;6.50;2.40;;;;;;;;;;6158469;23;20061;-90
2022/08/02 16:16:31;;;;;;;;;;;;;;;;;;6150478;23;20030;-89
2022/08/02 16:18:59;;;;;;;8.57;2.35;;;;;;;;;;6152400;23;20003;-91
2022/08/02 16:21:49;;;;;;;10.27;2.20;;;;;;;;;;6153146;23;20565;-90
2022/08/02 16:24:16;;;;;;;7.20;2.50;;;;;;;;;;6153209;23;20093;-91
2022/08/02 16:26:44;;;;;;;7.60;2.40;;;;;;;;;;6152827;23;20560;-92
2022/08/02 16:29:11;;;;;;;8.98;2.10;;;;;;;;;;6154459;23;20029;-92
2022/08/02 16:31:39;;;;;;;10.73;2.75;;;;;;;;;;6153094;23;20452;-92
2022/08/02 16:34:09;;;;;;;5.78;2.05;;;;;;;;;;6153561;23;20018;-92
2022/08/02 16:36:36;;;;;;;4.72;2.53;;;;;;;;;;6155920;23;20080;-92
2022/08/02 16:39:04;;;;;;;6.18;2.40;;;;;;;;;;6155022;23;20021;-91
2022/08/02 16:41:31;;;;;;;;;;;;;;;;;;6154244;23;20088;-92
2022/08/02 16:44:17;;;;;;;8.48;2.70;;;;;;;;;;6156146;23;19927;-93